createdAt,value
2023-04-27T00:00:30.271Z,22.89
2023-04-27T00:01:30.312Z,22.89
2023-04-27T00:02:30.495Z,22.90
2023-04-27T00:03:30.686Z,22.90
2023-04-27T00:04:30.771Z,22.91
2023-04-27T00:05:30.629Z,22.91
2023-04-27T00:06:30.592Z,22.91
2023-04-27T00:07:30.654Z,22.91
2023-04-27T00:08:30.721Z,22.91
2023-04-27T00:09:30.801Z,22.91
2023-04-27T00:10:30.859Z,22.90
2023-04-27T00:11:30.892Z,22.90
2023-04-27T00:12:31.016Z,22.91
2023-04-27T00:13:31.006Z,22.91
2023-04-27T00:14:31.073Z,22.90
2023-04-27T00:15:31.118Z,22.90
2023-04-27T00:16:31.210Z,22.90
2023-04-27T00:17:31.320Z,22.89
2023-04-27T00:18:31.339Z,22.88
2023-04-27T00:19:31.373Z,22.87
2023-04-27T00:20:31.414Z,22.87
2023-04-27T00:21:31.448Z,22.88
2023-04-27T00:22:31.500Z,22.88
2023-04-27T00:23:31.574Z,22.88
2023-04-27T00:24:31.614Z,22.89
2023-04-27T00:25:31.671Z,22.87
2023-04-27T00:26:31.733Z,22.85
2023-04-27T00:27:31.751Z,22.86
2023-04-27T00:28:31.822Z,22.86
2023-04-27T00:29:31.880Z,22.87
2023-04-27T00:30:31.915Z,22.86
2023-04-27T00:31:32.001Z,22.87
2023-04-27T00:32:32.070Z,22.88
2023-04-27T00:33:32.121Z,22.88
2023-04-27T00:34:32.138Z,22.88
2023-04-27T00:35:32.239Z,22.88
2023-04-27T00:36:32.272Z,22.88
2023-04-27T00:37:32.344Z,22.88
2023-04-27T00:38:32.381Z,22.89
2023-04-27T00:39:32.445Z,22.88
2023-04-27T00:40:32.520Z,22.89
2023-04-27T00:41:32.573Z,22.89
2023-04-27T00:42:32.631Z,22.88
2023-04-27T00:43:32.763Z,22.89
2023-04-27T00:44:32.732Z,22.88
2023-04-27T00:45:34.357Z,22.88
2023-04-27T00:46:32.997Z,22.89
2023-04-27T00:47:32.943Z,22.88
2023-04-27T00:48:32.977Z,22.89
2023-04-27T00:49:33.021Z,22.87
2023-04-27T00:50:33.093Z,22.88
2023-04-27T00:51:33.123Z,22.87
2023-04-27T00:52:33.210Z,22.88
2023-04-27T00:53:33.259Z,22.88
2023-04-27T00:54:33.300Z,22.88
2023-04-27T00:55:33.330Z,22.88
2023-04-27T00:56:33.438Z,22.88
2023-04-27T00:57:33.471Z,22.89
2023-04-27T00:58:33.508Z,22.89
2023-04-27T00:59:33.549Z,22.88
2023-04-27T01:00:33.586Z,22.88
2023-04-27T01:01:33.673Z,22.88
2023-04-27T01:02:33.828Z,22.88
2023-04-27T01:03:33.900Z,22.87
2023-04-27T01:04:33.947Z,22.88
2023-04-27T01:05:33.925Z,22.88
2023-04-27T01:06:33.914Z,22.86
2023-04-27T01:07:33.974Z,22.86
2023-04-27T01:08:34.035Z,22.87
2023-04-27T01:09:34.104Z,22.86
2023-04-27T01:10:34.142Z,22.86
2023-04-27T01:11:34.212Z,22.86
2023-04-27T01:12:34.249Z,22.87
2023-04-27T01:13:34.317Z,22.87
2023-04-27T01:14:34.384Z,22.87
2023-04-27T01:15:34.454Z,22.86
2023-04-27T01:16:34.589Z,22.85
2023-04-27T01:17:34.591Z,22.83
2023-04-27T01:18:34.618Z,22.83
2023-04-27T01:19:34.657Z,22.84
2023-04-27T01:20:34.725Z,22.84
2023-04-27T01:21:34.781Z,22.85
2023-04-27T01:22:34.841Z,22.85
2023-04-27T01:23:34.890Z,22.84
2023-04-27T01:24:34.943Z,22.85
2023-04-27T01:25:35.033Z,22.86
2023-04-27T01:26:35.069Z,22.86
2023-04-27T01:27:35.138Z,22.86
2023-04-27T01:28:35.216Z,22.85
2023-04-27T01:29:35.254Z,22.87
2023-04-27T01:30:35.348Z,22.86
2023-04-27T01:31:35.460Z,22.87
2023-04-27T01:32:35.460Z,22.85
2023-04-27T01:33:35.478Z,22.86
2023-04-27T01:34:35.538Z,22.85
2023-04-27T01:35:35.579Z,22.84
2023-04-27T01:36:35.653Z,22.85
2023-04-27T01:37:35.704Z,22.86
2023-04-27T01:38:35.759Z,22.85
2023-04-27T01:39:35.819Z,22.85
2023-04-27T01:40:35.943Z,22.85
2023-04-27T01:41:35.965Z,22.84
2023-04-27T01:42:36.017Z,22.86
2023-04-27T01:43:36.053Z,22.84
2023-04-27T01:44:36.121Z,22.83
2023-04-27T01:45:36.858Z,22.84
2023-04-27T01:46:36.353Z,22.84
2023-04-27T01:47:36.396Z,22.83
2023-04-27T01:48:36.365Z,22.84
2023-04-27T01:49:36.419Z,22.83
2023-04-27T01:50:36.504Z,22.84
2023-04-27T01:51:36.532Z,22.84
2023-04-27T01:52:36.592Z,22.84
2023-04-27T01:53:36.670Z,22.84
2023-04-27T01:54:36.775Z,22.84
2023-04-27T01:55:36.798Z,22.83
2023-04-27T01:56:36.837Z,22.84
2023-04-27T01:57:36.913Z,22.83
2023-04-27T01:58:36.962Z,22.83
2023-04-27T01:59:36.994Z,22.83
2023-04-27T02:00:37.044Z,22.84
2023-04-27T02:01:37.130Z,22.82
2023-04-27T02:02:37.260Z,22.83
2023-04-27T02:03:37.429Z,22.83
2023-04-27T02:04:37.311Z,22.84
2023-04-27T02:05:37.336Z,22.85
2023-04-27T02:06:37.353Z,22.84
2023-04-27T02:07:37.407Z,22.84
2023-04-27T02:08:37.459Z,22.84
2023-04-27T02:09:37.508Z,22.84
2023-04-27T02:10:37.580Z,22.85
2023-04-27T02:11:37.619Z,22.85
2023-04-27T02:12:37.696Z,22.85
2023-04-27T02:13:37.805Z,22.85
2023-04-27T02:14:37.790Z,22.85
2023-04-27T02:15:37.856Z,22.85
2023-04-27T02:16:37.978Z,22.84
2023-04-27T02:17:38.053Z,22.84
2023-04-27T02:18:38.035Z,22.84
2023-04-27T02:19:38.074Z,22.84
2023-04-27T02:20:38.143Z,22.83
2023-04-27T02:21:38.191Z,22.84
2023-04-27T02:22:38.270Z,22.84
2023-04-27T02:23:38.338Z,22.84
2023-04-27T02:24:38.468Z,22.84
2023-04-27T02:25:38.450Z,22.83
2023-04-27T02:26:38.539Z,22.84
2023-04-27T02:27:38.569Z,22.83
2023-04-27T02:28:38.581Z,22.84
2023-04-27T02:29:38.669Z,22.83
2023-04-27T02:30:38.703Z,22.83
2023-04-27T02:31:38.755Z,22.84
2023-04-27T02:32:38.877Z,22.83
2023-04-27T02:33:38.878Z,22.84
2023-04-27T02:34:38.937Z,22.83
2023-04-27T02:35:38.989Z,22.83
2023-04-27T02:36:39.054Z,22.82
2023-04-27T02:37:39.107Z,22.83
2023-04-27T02:38:39.162Z,22.83
2023-04-27T02:39:39.237Z,22.83
2023-04-27T02:40:39.314Z,22.83
2023-04-27T02:41:39.332Z,22.84
2023-04-27T02:42:39.404Z,22.84
2023-04-27T02:43:39.467Z,22.84
2023-04-27T02:44:39.514Z,22.83
2023-04-27T02:45:39.586Z,22.82
2023-04-27T02:46:39.619Z,22.82
2023-04-27T02:47:39.720Z,22.81
2023-04-27T02:48:39.734Z,22.81
2023-04-27T02:49:39.840Z,22.81
2023-04-27T02:50:39.845Z,22.81
2023-04-27T02:51:39.874Z,22.81
2023-04-27T02:52:39.956Z,22.81
2023-04-27T02:53:39.992Z,22.81
2023-04-27T02:54:40.026Z,22.81
2023-04-27T02:55:40.097Z,22.80
2023-04-27T02:56:40.103Z,22.81
2023-04-27T02:57:40.194Z,22.82
2023-04-27T02:58:40.205Z,22.82
2023-04-27T02:59:40.252Z,22.82
2023-04-27T03:00:40.287Z,22.82
2023-04-27T03:01:40.538Z,22.82
2023-04-27T03:02:40.513Z,22.81
2023-04-27T03:03:40.573Z,22.81
2023-04-27T03:04:40.540Z,22.82
2023-04-27T03:05:40.585Z,22.82
2023-04-27T03:06:40.611Z,22.82
2023-04-27T03:07:40.669Z,22.81
2023-04-27T03:08:40.780Z,22.82
2023-04-27T03:09:40.782Z,22.82
2023-04-27T03:10:40.888Z,22.80
2023-04-27T03:11:40.965Z,22.81
2023-04-27T03:12:41.024Z,22.81
2023-04-27T03:13:41.018Z,22.81
2023-04-27T03:14:41.073Z,22.80
2023-04-27T03:15:41.129Z,22.79
2023-04-27T03:16:41.192Z,22.79
2023-04-27T03:17:41.289Z,22.80
2023-04-27T03:18:41.306Z,22.78
2023-04-27T03:19:41.312Z,22.78
2023-04-27T03:20:41.391Z,22.79
2023-04-27T03:21:41.528Z,22.80
2023-04-27T03:22:41.502Z,22.79
2023-04-27T03:23:41.512Z,22.79
2023-04-27T03:24:41.608Z,22.81
2023-04-27T03:25:41.637Z,22.80
2023-04-27T03:26:41.698Z,22.80
2023-04-27T03:27:41.715Z,22.79
2023-04-27T03:28:41.795Z,22.79
2023-04-27T03:29:41.804Z,22.80
2023-04-27T03:30:41.903Z,22.81
2023-04-27T03:31:42.012Z,22.81
2023-04-27T03:32:42.098Z,22.81
2023-04-27T03:33:42.112Z,22.80
2023-04-27T03:34:42.115Z,22.78
2023-04-27T03:35:42.110Z,22.78
2023-04-27T03:36:42.186Z,22.79
2023-04-27T03:37:42.183Z,22.78
2023-04-27T03:38:42.320Z,22.77
2023-04-27T03:39:42.302Z,22.78
2023-04-27T03:40:42.378Z,22.79
2023-04-27T03:41:42.422Z,22.79
2023-04-27T03:42:42.451Z,22.79
2023-04-27T03:43:42.500Z,22.80
2023-04-27T03:44:42.535Z,22.80
2023-04-27T03:45:42.672Z,22.79
2023-04-27T03:46:42.649Z,22.79
2023-04-27T03:47:42.736Z,22.79
2023-04-27T03:48:42.746Z,22.79
2023-04-27T03:49:42.775Z,22.79
2023-04-27T03:50:42.824Z,22.79
2023-04-27T03:51:42.872Z,22.80
2023-04-27T03:52:42.906Z,22.80
2023-04-27T03:53:43.071Z,22.79
2023-04-27T03:54:43.009Z,22.78
2023-04-27T03:55:43.032Z,22.78
2023-04-27T03:56:43.067Z,22.78
2023-04-27T03:57:43.167Z,22.78
2023-04-27T03:58:43.215Z,22.78
2023-04-27T03:59:43.213Z,22.78
2023-04-27T04:00:43.298Z,22.79
2023-04-27T04:01:43.371Z,22.78
2023-04-27T04:02:43.463Z,22.79
2023-04-27T04:03:43.580Z,22.78
2023-04-27T04:04:43.755Z,22.79
2023-04-27T04:05:43.510Z,22.79
2023-04-27T04:06:43.501Z,22.78
2023-04-27T04:07:43.547Z,22.79
2023-04-27T04:08:43.611Z,22.79
2023-04-27T04:09:43.631Z,22.80
2023-04-27T04:10:43.707Z,22.80
2023-04-27T04:11:43.709Z,22.80
2023-04-27T04:12:43.809Z,22.81
2023-04-27T04:13:43.787Z,22.80
2023-04-27T04:14:43.834Z,22.81
2023-04-27T04:15:43.944Z,22.80
2023-04-27T04:16:43.916Z,22.81
2023-04-27T04:17:44.028Z,22.80
2023-04-27T04:18:44.051Z,22.80
2023-04-27T04:19:44.072Z,22.79
2023-04-27T04:20:44.132Z,22.79
2023-04-27T04:21:44.202Z,22.79
2023-04-27T04:22:44.231Z,22.78
2023-04-27T04:23:44.282Z,22.79
2023-04-27T04:24:44.308Z,22.78
2023-04-27T04:25:44.376Z,22.79
2023-04-27T04:26:44.457Z,22.80
2023-04-27T04:27:44.482Z,22.79
2023-04-27T04:28:44.526Z,22.80
2023-04-27T04:29:44.594Z,22.79
2023-04-27T04:30:44.638Z,22.79
2023-04-27T04:31:44.774Z,22.79
2023-04-27T04:32:44.786Z,22.78
2023-04-27T04:33:44.792Z,22.77
2023-04-27T04:34:44.865Z,22.78
2023-04-27T04:35:44.932Z,22.79
2023-04-27T04:36:44.963Z,22.79
2023-04-27T04:37:45.072Z,22.79
2023-04-27T04:38:45.045Z,22.79
2023-04-27T04:39:45.119Z,22.79
2023-04-27T04:40:45.998Z,22.79
2023-04-27T04:41:45.228Z,22.79
2023-04-27T04:42:45.295Z,22.78
2023-04-27T04:43:45.325Z,22.79
2023-04-27T04:44:45.409Z,22.79
2023-04-27T04:45:46.387Z,22.80
2023-04-27T04:46:45.480Z,22.80
2023-04-27T04:47:45.603Z,22.80
2023-04-27T04:48:45.623Z,22.80
2023-04-27T04:49:45.647Z,22.80
2023-04-27T04:50:45.718Z,22.80
2023-04-27T04:51:45.812Z,22.81
2023-04-27T04:52:45.800Z,22.81
2023-04-27T04:53:45.859Z,22.82
2023-04-27T04:54:45.959Z,22.81
2023-04-27T04:55:45.987Z,22.81
2023-04-27T04:56:46.038Z,22.81
2023-04-27T04:57:46.106Z,22.81
2023-04-27T04:58:46.139Z,22.82
2023-04-27T04:59:46.226Z,22.82
2023-04-27T05:00:46.248Z,22.82
2023-04-27T05:02:46.602Z,22.83
2023-04-27T05:03:46.550Z,22.83
2023-04-27T05:04:46.649Z,22.83
2023-04-27T05:05:46.550Z,22.82
2023-04-27T05:06:46.599Z,22.82
2023-04-27T05:07:46.645Z,22.82
2023-04-27T05:08:46.708Z,22.83
2023-04-27T05:09:46.777Z,22.83
2023-04-27T05:10:46.834Z,22.83
2023-04-27T05:11:46.862Z,22.84
2023-04-27T05:12:46.936Z,22.84
2023-04-27T05:13:46.972Z,22.83
2023-04-27T05:14:47.028Z,22.84
2023-04-27T05:15:47.149Z,22.84
2023-04-27T05:16:47.153Z,22.83
2023-04-27T05:17:47.265Z,22.84
2023-04-27T05:18:47.255Z,22.84
2023-04-27T05:19:47.483Z,22.84
2023-04-27T05:20:47.406Z,22.83
2023-04-27T05:21:47.487Z,22.83
2023-04-27T05:22:47.501Z,22.83
2023-04-27T05:23:47.692Z,22.83
2023-04-27T05:24:47.630Z,22.83
2023-04-27T05:25:47.692Z,22.84
2023-04-27T05:26:47.713Z,22.83
2023-04-27T05:27:47.909Z,22.82
2023-04-27T05:28:47.821Z,22.81
2023-04-27T05:29:47.882Z,22.82
2023-04-27T05:30:48.406Z,22.82
2023-04-27T05:31:48.078Z,22.83
2023-04-27T05:32:48.118Z,22.83
2023-04-27T05:33:48.109Z,22.83
2023-04-27T05:34:49.585Z,22.82
2023-04-27T05:35:48.279Z,22.82
2023-04-27T05:36:48.428Z,22.80
2023-04-27T05:37:48.381Z,22.83
2023-04-27T05:38:48.393Z,22.81
2023-04-27T05:39:48.521Z,22.83
2023-04-27T05:40:48.536Z,22.83
2023-04-27T05:41:48.548Z,22.83
2023-04-27T05:42:48.960Z,22.83
2023-04-27T05:43:48.667Z,22.85
2023-04-27T05:44:48.721Z,22.85
2023-04-27T05:45:48.823Z,22.84
2023-04-27T05:46:48.825Z,22.81
2023-04-27T05:47:49.179Z,22.80
2023-04-27T05:48:48.986Z,22.81
2023-04-27T05:49:48.955Z,22.81
2023-04-27T05:50:49.058Z,22.81
2023-04-27T05:51:49.099Z,22.83
2023-04-27T05:52:49.525Z,22.84
2023-04-27T05:53:49.184Z,22.85
2023-04-27T05:54:49.252Z,22.87
2023-04-27T05:55:49.288Z,22.88
2023-04-27T05:56:49.343Z,22.89
2023-04-27T05:57:54.456Z,22.89
2023-04-27T05:58:50.441Z,22.90
2023-04-27T05:59:49.417Z,22.91
2023-04-27T06:00:49.457Z,22.91
2023-04-27T06:01:49.447Z,22.91
2023-04-27T06:02:49.501Z,22.93
2023-04-27T06:03:49.533Z,22.93
2023-04-27T06:04:49.420Z,22.95
2023-04-27T06:05:49.364Z,22.96
2023-04-27T06:06:49.333Z,22.96
2023-04-27T06:07:49.329Z,22.95
2023-04-27T06:08:49.381Z,22.95
2023-04-27T06:09:49.463Z,22.96
2023-04-27T06:10:49.957Z,22.97
2023-04-27T06:11:50.430Z,22.96
2023-04-27T06:12:49.600Z,22.96
2023-04-27T06:13:49.635Z,22.95
2023-04-27T06:14:50.449Z,22.97
2023-04-27T06:15:50.988Z,22.97
2023-04-27T06:16:49.765Z,22.97
2023-04-27T06:17:49.825Z,22.97
2023-04-27T06:18:49.848Z,22.96
2023-04-27T06:19:49.913Z,22.98
2023-04-27T06:20:49.985Z,22.99
2023-04-27T06:21:49.958Z,23.00
2023-04-27T06:22:50.028Z,22.99
2023-04-27T06:23:50.038Z,22.99
2023-04-27T06:24:50.083Z,22.99
2023-04-27T06:25:50.314Z,22.98
2023-04-27T06:26:50.203Z,23.00
2023-04-27T06:27:50.226Z,23.02
2023-04-27T06:28:50.306Z,23.03
2023-04-27T06:29:50.311Z,23.04
2023-04-27T06:30:50.429Z,23.03
2023-04-27T06:31:50.528Z,23.03
2023-04-27T06:32:50.659Z,23.01
2023-04-27T06:33:50.513Z,23.01
2023-04-27T06:34:50.563Z,23.00
2023-04-27T06:35:50.613Z,22.98
2023-04-27T06:36:50.673Z,22.97
2023-04-27T06:37:50.963Z,22.98
2023-04-27T06:38:50.793Z,23.00
2023-04-27T06:39:50.824Z,22.99
2023-04-27T06:40:50.826Z,22.97
2023-04-27T06:41:50.879Z,22.99
2023-04-27T06:42:51.471Z,23.00
2023-04-27T06:43:50.977Z,23.01
2023-04-27T06:44:51.038Z,23.01
2023-04-27T06:45:51.119Z,22.98
2023-04-27T06:46:51.132Z,22.97
2023-04-27T06:47:51.450Z,22.95
2023-04-27T06:48:51.245Z,22.93
2023-04-27T06:49:51.348Z,22.90
2023-04-27T06:50:51.465Z,22.88
2023-04-27T06:51:51.408Z,22.87
2023-04-27T06:52:51.481Z,22.86
2023-04-27T06:53:51.527Z,22.85
2023-04-27T06:54:51.594Z,22.84
2023-04-27T06:55:51.841Z,22.81
2023-04-27T06:56:51.704Z,22.81
2023-04-27T06:57:51.769Z,22.80
2023-04-27T06:58:51.811Z,22.78
2023-04-27T06:59:51.886Z,22.76
2023-04-27T07:00:51.957Z,22.76
2023-04-27T07:01:52.150Z,22.74
2023-04-27T07:02:52.147Z,22.75
2023-04-27T07:03:52.394Z,22.77
2023-04-27T07:04:52.465Z,22.78
2023-04-27T07:05:52.195Z,22.81
2023-04-27T07:06:52.269Z,22.82
2023-04-27T07:07:52.333Z,22.85
2023-04-27T07:08:52.418Z,22.85
2023-04-27T07:09:52.557Z,22.87
2023-04-27T07:10:55.451Z,22.89
2023-04-27T07:11:52.513Z,22.90
2023-04-27T07:12:52.550Z,22.91
2023-04-27T07:13:52.513Z,22.93
2023-04-27T07:14:52.464Z,22.95
2023-04-27T07:15:52.532Z,22.97
2023-04-27T07:16:52.491Z,22.97
2023-04-27T07:17:52.555Z,22.99
2023-04-27T07:18:52.995Z,23.00
2023-04-27T07:19:52.547Z,22.99
2023-04-27T07:20:52.457Z,23.00
2023-04-27T07:21:52.448Z,23.00
2023-04-27T07:22:52.422Z,23.01
2023-04-27T07:23:53.478Z,23.02
2023-04-27T07:24:52.476Z,23.01
2023-04-27T07:25:52.495Z,23.00
2023-04-27T07:26:52.451Z,22.98
2023-04-27T07:27:52.480Z,22.98
2023-04-27T07:28:52.384Z,22.97
2023-04-27T07:29:52.374Z,22.94
2023-04-27T07:30:52.365Z,22.88
2023-04-27T07:31:52.451Z,22.86
2023-04-27T07:32:52.592Z,22.86
2023-04-27T07:33:52.466Z,22.87
2023-04-27T07:34:54.045Z,22.89
2023-04-27T07:35:52.975Z,22.94
2023-04-27T07:36:52.598Z,22.96
2023-04-27T07:37:52.680Z,22.93
2023-04-27T07:38:52.985Z,22.92
2023-04-27T07:39:52.789Z,22.91
2023-04-27T07:40:52.972Z,22.91
2023-04-27T07:41:52.903Z,22.91
2023-04-27T07:42:52.977Z,22.91
2023-04-27T07:43:53.115Z,22.90
2023-04-27T07:44:53.075Z,22.91
2023-04-27T07:45:53.543Z,22.93
2023-04-27T07:46:53.467Z,22.94
2023-04-27T07:47:53.332Z,22.93
2023-04-27T07:48:53.467Z,22.95
2023-04-27T07:49:53.392Z,22.98
2023-04-27T07:50:53.465Z,22.99
2023-04-27T07:51:53.456Z,23.00
2023-04-27T07:52:53.524Z,23.01
2023-04-27T07:53:53.602Z,23.01
2023-04-27T07:54:53.627Z,22.99
2023-04-27T07:55:53.984Z,22.98
2023-04-27T07:56:53.712Z,22.98
2023-04-27T07:57:53.778Z,22.98
2023-04-27T07:58:53.962Z,22.98
2023-04-27T07:59:53.965Z,22.98
2023-04-27T08:00:53.893Z,22.97
2023-04-27T08:01:59.124Z,22.98
2023-04-27T08:02:55.174Z,22.96
2023-04-27T08:03:54.273Z,22.97
2023-04-27T08:04:54.361Z,22.97
2023-04-27T08:05:54.297Z,22.97
2023-04-27T08:06:54.261Z,22.97
2023-04-27T08:07:54.532Z,22.96
2023-04-27T08:08:53.942Z,22.97
2023-04-27T08:09:53.931Z,22.98
2023-04-27T08:10:53.905Z,22.98
2023-04-27T08:11:53.941Z,22.98
2023-04-27T08:12:53.877Z,22.98
2023-04-27T08:13:53.930Z,23.00
2023-04-27T08:14:53.988Z,22.99
2023-04-27T08:15:54.053Z,23.00
2023-04-27T08:16:54.142Z,22.99
2023-04-27T08:17:54.180Z,23.00
2023-04-27T08:18:54.176Z,22.99
2023-04-27T08:19:54.278Z,23.00
2023-04-27T08:20:54.268Z,23.03
2023-04-27T08:21:54.320Z,23.05
2023-04-27T08:22:54.357Z,23.06
2023-04-27T08:23:54.442Z,23.05
2023-04-27T08:24:54.444Z,23.08
2023-04-27T08:25:54.496Z,23.13
2023-04-27T08:26:54.524Z,23.18
2023-04-27T08:27:55.484Z,23.19
2023-04-27T08:28:54.600Z,23.20
2023-04-27T08:29:54.587Z,23.18
2023-04-27T08:30:55.031Z,23.16
2023-04-27T08:31:56.618Z,23.12
2023-04-27T08:32:54.901Z,23.09
2023-04-27T08:33:54.764Z,23.05
2023-04-27T08:34:54.778Z,23.02
2023-04-27T08:35:54.995Z,23.01
2023-04-27T08:36:54.926Z,23.00
2023-04-27T08:37:54.930Z,23.00
2023-04-27T08:38:54.996Z,22.99
2023-04-27T08:39:55.076Z,22.98
2023-04-27T08:40:56.090Z,22.95
2023-04-27T08:41:55.189Z,22.94
2023-04-27T08:42:55.220Z,22.95
2023-04-27T08:43:55.884Z,22.92
2023-04-27T08:44:55.319Z,22.93
2023-04-27T08:45:55.437Z,22.93
2023-04-27T08:46:55.459Z,22.95
2023-04-27T08:47:55.548Z,22.98
2023-04-27T08:48:55.582Z,23.05
2023-04-27T08:49:55.632Z,23.13
2023-04-27T08:50:55.625Z,23.19
2023-04-27T08:51:55.691Z,23.22
2023-04-27T08:52:55.677Z,23.22
2023-04-27T08:53:55.803Z,23.21
2023-04-27T08:54:55.713Z,23.19
2023-04-27T08:55:55.762Z,23.18
2023-04-27T08:56:55.756Z,23.16
2023-04-27T08:57:55.803Z,23.14
2023-04-27T08:58:55.894Z,23.14
2023-04-27T08:59:55.901Z,23.13
2023-04-27T09:00:55.945Z,23.11
2023-04-27T09:01:55.991Z,23.10
2023-04-27T09:02:56.705Z,23.11
2023-04-27T09:03:56.218Z,23.08
2023-04-27T09:04:56.164Z,23.08
2023-04-27T09:06:04.527Z,23.09
2023-04-27T09:06:57.078Z,23.08
2023-04-27T09:07:56.080Z,23.07
2023-04-27T09:08:56.076Z,23.07
2023-04-27T09:09:56.148Z,23.07
2023-04-27T09:10:56.095Z,23.07
2023-04-27T09:11:56.060Z,23.06
2023-04-27T09:12:56.072Z,23.06
2023-04-27T09:13:56.996Z,23.08
2023-04-27T09:14:56.011Z,23.09
2023-04-27T09:15:56.084Z,23.10
2023-04-27T09:16:56.020Z,23.10
2023-04-27T09:17:56.048Z,23.10
2023-04-27T09:18:56.077Z,23.09
2023-04-27T09:19:56.001Z,23.10
2023-04-27T09:20:56.040Z,23.09
2023-04-27T09:21:56.148Z,23.08
2023-04-27T09:22:56.097Z,23.08
2023-04-27T09:23:56.117Z,23.09
2023-04-27T09:24:56.293Z,23.10
2023-04-27T09:25:56.221Z,23.10
2023-04-27T09:26:56.674Z,23.10
2023-04-27T09:27:56.312Z,23.10
2023-04-27T09:28:56.303Z,23.10
2023-04-27T09:29:56.474Z,23.09
2023-04-27T09:30:56.427Z,23.05
2023-04-27T09:31:56.723Z,23.02
2023-04-27T09:32:56.515Z,23.01
2023-04-27T09:33:56.576Z,23.02
2023-04-27T09:34:56.574Z,23.02
2023-04-27T09:35:56.630Z,23.04
2023-04-27T09:36:56.714Z,23.05
2023-04-27T09:37:56.735Z,23.07
2023-04-27T09:38:56.755Z,23.09
2023-04-27T09:39:56.797Z,23.09
2023-04-27T09:40:56.789Z,23.10
2023-04-27T09:41:56.862Z,23.11
2023-04-27T09:42:57.017Z,23.09
2023-04-27T09:43:57.937Z,23.07
2023-04-27T09:44:56.961Z,23.05
2023-04-27T09:45:57.041Z,23.05
2023-04-27T09:46:57.047Z,23.04
2023-04-27T09:47:57.146Z,23.03
2023-04-27T09:48:57.150Z,23.02
2023-04-27T09:49:57.170Z,23.01
2023-04-27T09:50:57.240Z,23.01
2023-04-27T09:51:57.251Z,23.01
2023-04-27T09:52:57.290Z,23.00
2023-04-27T09:53:57.355Z,22.99
2023-04-27T09:54:57.423Z,22.99
2023-04-27T09:55:57.427Z,22.98
2023-04-27T09:56:57.510Z,22.97
2023-04-27T09:57:57.688Z,22.97
2023-04-27T09:59:00.501Z,22.97
2023-04-27T09:59:58.025Z,22.98
2023-04-27T10:00:57.618Z,22.99
2023-04-27T10:01:57.634Z,23.02
2023-04-27T10:02:57.818Z,23.02
2023-04-27T10:03:57.672Z,23.03
2023-04-27T10:04:57.569Z,23.04
2023-04-27T10:05:57.589Z,23.05
2023-04-27T10:06:57.900Z,23.05
2023-04-27T10:07:57.670Z,23.06
2023-04-27T10:08:57.544Z,23.06
2023-04-27T10:09:57.519Z,23.07
2023-04-27T10:10:57.509Z,23.09
2023-04-27T10:11:57.491Z,23.10
2023-04-27T10:12:57.575Z,23.07
2023-04-27T10:13:57.485Z,23.06
2023-04-27T10:14:57.502Z,23.07
2023-04-27T10:15:57.471Z,23.12
2023-04-27T10:16:57.564Z,23.17
2023-04-27T10:17:57.482Z,23.17
2023-04-27T10:18:57.478Z,23.20
2023-04-27T10:19:58.238Z,23.20
2023-04-27T10:20:57.429Z,23.21
2023-04-27T10:21:57.437Z,23.20
2023-04-27T10:22:57.470Z,23.19
2023-04-27T10:23:57.432Z,23.18
2023-04-27T10:24:57.418Z,23.20
2023-04-27T10:25:57.431Z,23.20
2023-04-27T10:26:57.395Z,23.19
2023-04-27T10:27:57.430Z,23.15
2023-04-27T10:28:57.409Z,23.15
2023-04-27T10:29:57.404Z,23.17
2023-04-27T10:30:57.533Z,23.21
2023-04-27T10:31:57.371Z,23.22
2023-04-27T10:32:57.455Z,23.23
2023-04-27T10:33:57.374Z,23.27
2023-04-27T10:34:57.552Z,23.29
2023-04-27T10:35:57.363Z,23.29
2023-04-27T10:36:57.389Z,23.28
2023-04-27T10:37:57.338Z,23.29
2023-04-27T10:38:57.331Z,23.28
2023-04-27T10:39:57.316Z,23.25
2023-04-27T10:40:57.325Z,23.24
2023-04-27T10:41:57.559Z,23.26
2023-04-27T10:42:57.349Z,23.24
2023-04-27T10:43:57.307Z,23.24
2023-04-27T10:44:57.293Z,23.25
2023-04-27T10:45:57.339Z,23.26
2023-04-27T10:46:57.274Z,23.28
2023-04-27T10:47:57.325Z,23.29
2023-04-27T10:48:57.240Z,23.28
2023-04-27T10:49:57.243Z,23.29
2023-04-27T10:50:57.247Z,23.30
2023-04-27T10:51:57.286Z,23.27
2023-04-27T10:52:58.022Z,23.27
2023-04-27T10:53:57.319Z,23.27
2023-04-27T10:54:57.358Z,23.26
2023-04-27T10:55:57.380Z,23.25
2023-04-27T10:56:57.426Z,23.24
2023-04-27T10:57:57.460Z,23.23
2023-04-27T10:58:57.541Z,23.22
2023-04-27T10:59:57.541Z,23.21
2023-04-27T11:00:57.574Z,23.20
2023-04-27T11:01:57.631Z,23.20
2023-04-27T11:02:59.620Z,23.19
2023-04-27T11:03:57.704Z,23.18
2023-04-27T11:04:57.790Z,23.19
2023-04-27T11:05:58.116Z,23.19
2023-04-27T11:06:57.849Z,23.20
2023-04-27T11:07:57.898Z,23.21
2023-04-27T11:08:57.947Z,23.23
2023-04-27T11:09:58.057Z,23.23
2023-04-27T11:10:57.972Z,23.23
2023-04-27T11:11:58.048Z,23.25
2023-04-27T11:12:58.036Z,23.24
2023-04-27T11:13:58.055Z,23.25
2023-04-27T11:14:58.128Z,23.24
2023-04-27T11:15:58.190Z,23.23
2023-04-27T11:16:58.169Z,23.26
2023-04-27T11:17:58.295Z,23.27
2023-04-27T11:18:59.680Z,23.26
2023-04-27T11:19:58.291Z,23.28
2023-04-27T11:21:00.082Z,23.33
2023-04-27T11:21:58.630Z,23.35
2023-04-27T11:22:58.339Z,23.38
2023-04-27T11:23:58.348Z,23.40
2023-04-27T11:24:58.566Z,23.39
2023-04-27T11:25:58.387Z,23.38
2023-04-27T11:26:58.576Z,23.38
2023-04-27T11:27:58.481Z,23.38
2023-04-27T11:28:58.437Z,23.37
2023-04-27T11:29:58.564Z,23.35
2023-04-27T11:30:58.471Z,23.34
2023-04-27T11:31:58.597Z,23.31
2023-04-27T11:32:58.567Z,23.28
2023-04-27T11:33:58.595Z,23.26
2023-04-27T11:34:59.767Z,23.24
2023-04-27T11:35:58.639Z,23.23
2023-04-27T11:37:07.103Z,23.19
2023-04-27T11:37:59.619Z,23.17
2023-04-27T11:38:58.733Z,23.17
2023-04-27T11:39:58.649Z,23.18
2023-04-27T11:40:58.619Z,23.18
2023-04-27T11:41:58.644Z,23.17
2023-04-27T11:42:58.613Z,23.14
2023-04-27T11:43:58.583Z,23.14
2023-04-27T11:44:58.621Z,23.14
2023-04-27T11:45:58.566Z,23.13
2023-04-27T11:46:58.649Z,23.11
2023-04-27T11:47:58.583Z,23.10
2023-04-27T11:48:58.549Z,23.10
2023-04-27T11:49:58.709Z,23.10
2023-04-27T11:50:58.589Z,23.10
2023-04-27T11:51:58.628Z,23.10
2023-04-27T11:52:59.556Z,23.09
2023-04-27T11:53:58.729Z,23.09
2023-04-27T11:54:58.738Z,23.10
2023-04-27T11:55:58.755Z,23.13
2023-04-27T11:56:58.809Z,23.11
2023-04-27T11:57:58.883Z,23.09
2023-04-27T11:58:58.886Z,23.11
2023-04-27T11:59:58.917Z,23.11
2023-04-27T12:00:58.962Z,23.11
2023-04-27T12:01:59.020Z,23.12
2023-04-27T12:02:59.151Z,23.12
2023-04-27T12:04:02.244Z,23.11
2023-04-27T12:04:59.301Z,23.12
2023-04-27T12:06:07.666Z,23.11
2023-04-27T12:07:00.130Z,23.07
2023-04-27T12:07:59.053Z,23.07
2023-04-27T12:08:59.044Z,23.08
2023-04-27T12:10:00.872Z,23.12
2023-04-27T12:10:59.100Z,23.15
2023-04-27T12:11:59.035Z,23.17
2023-04-27T12:12:59.019Z,23.19
2023-04-27T12:13:59.010Z,23.18
2023-04-27T12:14:59.016Z,23.18
2023-04-27T12:16:00.476Z,23.18
2023-04-27T12:16:59.076Z,23.18
2023-04-27T12:17:59.126Z,23.17
2023-04-27T12:18:59.126Z,23.17
2023-04-27T12:19:59.179Z,23.16
2023-04-27T12:21:02.989Z,23.13
2023-04-27T12:21:59.195Z,23.12
2023-04-27T12:22:59.197Z,23.10
2023-04-27T12:23:59.233Z,23.12
2023-04-27T12:24:59.201Z,23.12
2023-04-27T12:25:59.183Z,23.09
2023-04-27T12:26:59.178Z,23.09
2023-04-27T12:27:59.166Z,23.10
2023-04-27T12:28:59.158Z,23.09
2023-04-27T12:29:59.182Z,23.09
2023-04-27T12:30:59.201Z,23.08
2023-04-27T12:31:59.165Z,23.08
2023-04-27T12:32:59.180Z,23.07
2023-04-27T12:33:59.149Z,23.07
2023-04-27T12:34:59.173Z,23.07
2023-04-27T12:35:59.139Z,23.07
2023-04-27T12:36:59.116Z,23.08
2023-04-27T12:37:59.115Z,23.09
2023-04-27T12:38:59.151Z,23.10
2023-04-27T12:39:59.106Z,23.12
2023-04-27T12:40:59.109Z,23.12
2023-04-27T12:41:59.094Z,23.14
2023-04-27T12:43:01.033Z,23.17
2023-04-27T12:43:59.190Z,23.19
2023-04-27T12:44:59.061Z,23.21
2023-04-27T12:45:59.084Z,23.22
2023-04-27T12:46:59.067Z,23.24
2023-04-27T12:48:03.375Z,23.28
2023-04-27T12:49:00.036Z,23.30
2023-04-27T12:49:59.031Z,23.31
2023-04-27T12:50:59.033Z,23.30
2023-04-27T12:51:59.028Z,23.32
2023-04-27T12:52:59.025Z,23.32
2023-04-27T12:54:00.801Z,23.30